sensor_id;sensor_type;location;lat;lon;timestamp;temperature;humidity
35970;DHT22;22448;51.298;6.430;2023-04-01T00:01:28;9.40;99.90
35970;DHT22;22448;51.298;6.430;2023-04-01T00:03:56;9.40;99.90
35970;DHT22;22448;51.298;6.430;2023-04-01T00:06:23;9.40;99.90
35970;DHT22;22448;51.298;6.430;2023-04-01T00:08:50;9.40;99.90
35970;DHT22;22448;51.298;6.430;2023-04-01T00:11:17;9.30;99.90
35970;DHT22;22448;51.298;6.430;2023-04-01T00:13:47;9.30;99.90
35970;DHT22;22448;51.298;6.430;2023-04-01T00:16:14;9.30;99.90
35970;DHT22;22448;51.298;6.430;2023-04-01T00:18:45;9.30;99.90
35970;DHT22;22448;51.298;6.430;2023-04-01T00:21:15;9.30;99.90
35970;DHT22;22448;51.298;6.430;2023-04-01T00:23:42;9.30;99.90
35970;DHT22;22448;51.298;6.430;2023-04-01T00:26:10;9.20;99.90
35970;DHT22;22448;51.298;6.430;2023-04-01T00:28:39;9.20;99.90
35970;DHT22;22448;51.298;6.430;2023-04-01T00:31:07;9.20;99.90
35970;DHT22;22448;51.298;6.430;2023-04-01T00:33:34;9.20;99.90
35970;DHT22;22448;51.298;6.430;2023-04-01T00:36:21;9.20;99.90
35970;DHT22;22448;51.298;6.430;2023-04-01T00:38:49;9.20;99.90
35970;DHT22;22448;51.298;6.430;2023-04-01T00:41:18;9.20;99.90
35970;DHT22;22448;51.298;6.430;2023-04-01T00:43:48;9.20;99.90
35970;DHT22;22448;51.298;6.430;2023-04-01T00:46:16;9.20;99.90
35970;DHT22;22448;51.298;6.430;2023-04-01T00:48:52;9.20;99.90
35970;DHT22;22448;51.298;6.430;2023-04-01T00:51:23;9.20;99.90
35970;DHT22;22448;51.298;6.430;2023-04-01T00:53:53;9.20;99.90
35970;DHT22;22448;51.298;6.430;2023-04-01T00:56:24;9.20;99.90
35970;DHT22;22448;51.298;6.430;2023-04-01T00:58:57;9.20;99.90
35970;DHT22;22448;51.298;6.430;2023-04-01T01:01:26;9.20;99.90
35970;DHT22;22448;51.298;6.430;2023-04-01T01:03:54;9.20;99.90
35970;DHT22;22448;51.298;6.430;2023-04-01T01:06:51;9.20;99.90
35970;DHT22;22448;51.298;6.430;2023-04-01T01:09:40;9.20;99.90
35970;DHT22;22448;51.298;6.430;2023-04-01T01:12:18;9.20;99.90
35970;DHT22;22448;51.298;6.430;2023-04-01T01:26:04;9.20;99.90
35970;DHT22;22448;51.298;6.430;2023-04-01T01:32:02;9.20;99.90
35970;DHT22;22448;51.298;6.430;2023-04-01T01:35:06;9.20;99.90
35970;DHT22;22448;51.298;6.430;2023-04-01T01:37:35;9.20;99.90
35970;DHT22;22448;51.298;6.430;2023-04-01T01:40:06;9.10;99.90
35970;DHT22;22448;51.298;6.430;2023-04-01T01:42:38;9.20;99.90
35970;DHT22;22448;51.298;6.430;2023-04-01T01:45:08;9.20;99.90
35970;DHT22;22448;51.298;6.430;2023-04-01T01:47:36;9.20;99.90
35970;DHT22;22448;51.298;6.430;2023-04-01T01:50:05;9.20;99.90
35970;DHT22;22448;51.298;6.430;2023-04-01T01:52:33;9.20;99.90
35970;DHT22;22448;51.298;6.430;2023-04-01T01:55:00;9.10;99.90
35970;DHT22;22448;51.298;6.430;2023-04-01T01:57:38;9.20;99.90
35970;DHT22;22448;51.298;6.430;2023-04-01T02:00:12;9.20;99.90
35970;DHT22;22448;51.298;6.430;2023-04-01T02:02:44;9.20;99.90
35970;DHT22;22448;51.298;6.430;2023-04-01T02:05:17;9.10;99.90
35970;DHT22;22448;51.298;6.430;2023-04-01T02:07:47;9.10;99.90
35970;DHT22;22448;51.298;6.430;2023-04-01T02:10:15;9.10;99.90
35970;DHT22;22448;51.298;6.430;2023-04-01T02:12:44;9.10;99.90
35970;DHT22;22448;51.298;6.430;2023-04-01T02:15:14;9.10;99.90
35970;DHT22;22448;51.298;6.430;2023-04-01T02:17:46;9.10;99.90
35970;DHT22;22448;51.298;6.430;2023-04-01T02:20:20;9.10;99.90
35970;DHT22;22448;51.298;6.430;2023-04-01T02:22:51;9.10;99.90
35970;DHT22;22448;51.298;6.430;2023-04-01T02:25:23;9.10;99.90
35970;DHT22;22448;51.298;6.430;2023-04-01T02:27:52;9.00;99.90
35970;DHT22;22448;51.298;6.430;2023-04-01T02:30:20;9.10;99.90
35970;DHT22;22448;51.298;6.430;2023-04-01T02:32:47;9.10;99.90
35970;DHT22;22448;51.298;6.430;2023-04-01T02:35:16;9.10;99.90
35970;DHT22;22448;51.298;6.430;2023-04-01T02:37:45;9.10;99.90
35970;DHT22;22448;51.298;6.430;2023-04-01T02:40:16;9.10;99.90
35970;DHT22;22448;51.298;6.430;2023-04-01T02:42:44;9.10;99.90
35970;DHT22;22448;51.298;6.430;2023-04-01T02:45:12;9.10;99.90
35970;DHT22;22448;51.298;6.430;2023-04-01T02:47:40;9.10;99.90
35970;DHT22;22448;51.298;6.430;2023-04-01T02:50:08;9.10;99.90
35970;DHT22;22448;51.298;6.430;2023-04-01T02:52:35;9.10;99.90
35970;DHT22;22448;51.298;6.430;2023-04-01T02:55:03;9.10;99.90
35970;DHT22;22448;51.298;6.430;2023-04-01T02:57:30;9.10;99.90
35970;DHT22;22448;51.298;6.430;2023-04-01T02:59:58;9.10;99.90
35970;DHT22;22448;51.298;6.430;2023-04-01T03:02:25;9.10;99.90
35970;DHT22;22448;51.298;6.430;2023-04-01T03:04:52;9.10;99.90
35970;DHT22;22448;51.298;6.430;2023-04-01T03:07:19;9.10;99.90
35970;DHT22;22448;51.298;6.430;2023-04-01T03:09:48;9.00;99.90
35970;DHT22;22448;51.298;6.430;2023-04-01T03:12:15;9.10;99.90
35970;DHT22;22448;51.298;6.430;2023-04-01T03:14:48;9.10;99.90
35970;DHT22;22448;51.298;6.430;2023-04-01T03:17:16;9.10;99.90
35970;DHT22;22448;51.298;6.430;2023-04-01T03:19:43;9.10;99.90
35970;DHT22;22448;51.298;6.430;2023-04-01T03:22:11;9.10;99.90
35970;DHT22;22448;51.298;6.430;2023-04-01T03:24:38;9.10;99.90
35970;DHT22;22448;51.298;6.430;2023-04-01T03:27:05;9.10;99.90
35970;DHT22;22448;51.298;6.430;2023-04-01T03:29:32;9.10;99.90
35970;DHT22;22448;51.298;6.430;2023-04-01T03:31:59;9.10;99.90
35970;DHT22;22448;51.298;6.430;2023-04-01T03:34:26;9.10;99.90
35970;DHT22;22448;51.298;6.430;2023-04-01T03:36:53;9.10;99.90
35970;DHT22;22448;51.298;6.430;2023-04-01T03:39:20;9.10;99.90
35970;DHT22;22448;51.298;6.430;2023-04-01T03:41:49;9.10;99.90
35970;DHT22;22448;51.298;6.430;2023-04-01T03:44:17;9.10;99.90
35970;DHT22;22448;51.298;6.430;2023-04-01T03:46:47;9.10;99.90
35970;DHT22;22448;51.298;6.430;2023-04-01T03:49:14;9.10;99.90
35970;DHT22;22448;51.298;6.430;2023-04-01T03:51:42;9.10;99.90
35970;DHT22;22448;51.298;6.430;2023-04-01T03:54:10;9.10;99.90
35970;DHT22;22448;51.298;6.430;2023-04-01T03:56:38;9.10;99.90
35970;DHT22;22448;51.298;6.430;2023-04-01T03:59:06;9.10;99.90
35970;DHT22;22448;51.298;6.430;2023-04-01T04:01:34;9.10;99.90
35970;DHT22;22448;51.298;6.430;2023-04-01T04:04:01;9.10;99.90
35970;DHT22;22448;51.298;6.430;2023-04-01T04:06:30;9.10;99.90
35970;DHT22;22448;51.298;6.430;2023-04-01T04:08:57;9.10;99.90
35970;DHT22;22448;51.298;6.430;2023-04-01T04:11:25;9.10;99.90
35970;DHT22;22448;51.298;6.430;2023-04-01T04:13:52;9.10;99.90
35970;DHT22;22448;51.298;6.430;2023-04-01T04:16:21;9.10;99.90
35970;DHT22;22448;51.298;6.430;2023-04-01T04:18:55;9.10;99.90
35970;DHT22;22448;51.298;6.430;2023-04-01T04:21:22;9.10;99.90
35970;DHT22;22448;51.298;6.430;2023-04-01T04:23:49;9.10;99.90
35970;DHT22;22448;51.298;6.430;2023-04-01T04:26:18;9.10;99.90
35970;DHT22;22448;51.298;6.430;2023-04-01T04:28:55;9.00;99.90
35970;DHT22;22448;51.298;6.430;2023-04-01T04:31:23;9.00;99.90
35970;DHT22;22448;51.298;6.430;2023-04-01T04:33:53;9.00;99.90
35970;DHT22;22448;51.298;6.430;2023-04-01T04:36:21;9.00;99.90
35970;DHT22;22448;51.298;6.430;2023-04-01T04:38:49;9.00;99.90
35970;DHT22;22448;51.298;6.430;2023-04-01T04:41:18;9.00;99.90
35970;DHT22;22448;51.298;6.430;2023-04-01T04:43:55;9.00;99.90
35970;DHT22;22448;51.298;6.430;2023-04-01T04:46:24;9.00;99.90
35970;DHT22;22448;51.298;6.430;2023-04-01T04:48:58;9.00;99.90
35970;DHT22;22448;51.298;6.430;2023-04-01T04:51:25;9.00;99.90
35970;DHT22;22448;51.298;6.430;2023-04-01T04:53:52;9.00;99.90
35970;DHT22;22448;51.298;6.430;2023-04-01T04:56:28;9.00;99.90
35970;DHT22;22448;51.298;6.430;2023-04-01T04:59:02;9.00;99.90
35970;DHT22;22448;51.298;6.430;2023-04-01T05:01:40;9.00;99.90
35970;DHT22;22448;51.298;6.430;2023-04-01T05:04:07;9.00;99.90
35970;DHT22;22448;51.298;6.430;2023-04-01T05:06:34;9.00;99.90
35970;DHT22;22448;51.298;6.430;2023-04-01T05:09:02;9.00;99.90
35970;DHT22;22448;51.298;6.430;2023-04-01T05:11:29;9.00;99.90
35970;DHT22;22448;51.298;6.430;2023-04-01T05:13:56;9.00;99.90
35970;DHT22;22448;51.298;6.430;2023-04-01T05:16:23;9.00;99.90
35970;DHT22;22448;51.298;6.430;2023-04-01T05:18:50;9.00;99.90
35970;DHT22;22448;51.298;6.430;2023-04-01T05:21:17;9.00;99.90
35970;DHT22;22448;51.298;6.430;2023-04-01T05:23:45;9.00;99.90
35970;DHT22;22448;51.298;6.430;2023-04-01T05:26:13;9.00;99.90
35970;DHT22;22448;51.298;6.430;2023-04-01T05:28:41;9.00;99.90
35970;DHT22;22448;51.298;6.430;2023-04-01T05:31:09;9.00;99.90
35970;DHT22;22448;51.298;6.430;2023-04-01T05:33:38;9.00;99.90
35970;DHT22;22448;51.298;6.430;2023-04-01T05:36:14;8.90;99.90
35970;DHT22;22448;51.298;6.430;2023-04-01T05:38:41;8.90;99.90
35970;DHT22;22448;51.298;6.430;2023-04-01T05:41:11;8.90;99.90
35970;DHT22;22448;51.298;6.430;2023-04-01T05:43:42;8.90;99.90
35970;DHT22;22448;51.298;6.430;2023-04-01T05:46:28;9.00;99.90
35970;DHT22;22448;51.298;6.430;2023-04-01T05:49:02;9.00;99.90
35970;DHT22;22448;51.298;6.430;2023-04-01T05:51:30;9.00;99.90
35970;DHT22;22448;51.298;6.430;2023-04-01T05:53:56;9.00;99.90
35970;DHT22;22448;51.298;6.430;2023-04-01T05:56:23;9.00;99.90
35970;DHT22;22448;51.298;6.430;2023-04-01T05:58:52;9.10;99.90
35970;DHT22;22448;51.298;6.430;2023-04-01T06:01:21;9.10;99.90
35970;DHT22;22448;51.298;6.430;2023-04-01T06:03:48;9.00;99.90
35970;DHT22;22448;51.298;6.430;2023-04-01T06:06:23;9.00;99.90
35970;DHT22;22448;51.298;6.430;2023-04-01T06:08:52;9.00;99.90
35970;DHT22;22448;51.298;6.430;2023-04-01T06:11:37;9.00;99.90
35970;DHT22;22448;51.298;6.430;2023-04-01T06:22:31;9.00;99.90
35970;DHT22;22448;51.298;6.430;2023-04-01T06:31:33;9.00;99.90
35970;DHT22;22448;51.298;6.430;2023-04-01T06:34:36;9.00;99.90
35970;DHT22;22448;51.298;6.430;2023-04-01T06:37:36;9.00;99.90
35970;DHT22;22448;51.298;6.430;2023-04-01T06:49:21;9.10;99.90
35970;DHT22;22448;51.298;6.430;2023-04-01T06:52:40;9.10;99.90
35970;DHT22;22448;51.298;6.430;2023-04-01T06:58:36;9.20;99.90
35970;DHT22;22448;51.298;6.430;2023-04-01T07:01:07;9.20;99.90
35970;DHT22;22448;51.298;6.430;2023-04-01T07:03:40;9.20;99.90
35970;DHT22;22448;51.298;6.430;2023-04-01T07:06:48;9.30;99.90
35970;DHT22;22448;51.298;6.430;2023-04-01T07:09:20;9.30;99.90
35970;DHT22;22448;51.298;6.430;2023-04-01T07:15:24;9.40;99.90
35970;DHT22;22448;51.298;6.430;2023-04-01T07:17:56;9.30;99.90
35970;DHT22;22448;51.298;6.430;2023-04-01T07:20:29;9.40;99.90
35970;DHT22;22448;51.298;6.430;2023-04-01T07:23:00;9.30;99.90
35970;DHT22;22448;51.298;6.430;2023-04-01T07:25:43;9.30;99.90
35970;DHT22;22448;51.298;6.430;2023-04-01T07:28:34;9.40;99.90
35970;DHT22;22448;51.298;6.430;2023-04-01T07:31:31;9.30;99.90
35970;DHT22;22448;51.298;6.430;2023-04-01T07:36:53;9.40;99.90
35970;DHT22;22448;51.298;6.430;2023-04-01T07:45:15;9.40;99.90
35970;DHT22;22448;51.298;6.430;2023-04-01T07:49:06;9.50;99.90
35970;DHT22;22448;51.298;6.430;2023-04-01T07:56:26;9.60;99.90
35970;DHT22;22448;51.298;6.430;2023-04-01T07:59:14;9.50;99.90
35970;DHT22;22448;51.298;6.430;2023-04-01T08:02:14;9.50;99.90
35970;DHT22;22448;51.298;6.430;2023-04-01T08:05:27;9.50;99.90
35970;DHT22;22448;51.298;6.430;2023-04-01T08:08:22;9.50;99.90
35970;DHT22;22448;51.298;6.430;2023-04-01T08:11:49;9.50;99.90
35970;DHT22;22448;51.298;6.430;2023-04-01T08:17:53;9.50;99.90
35970;DHT22;22448;51.298;6.430;2023-04-01T08:20:46;9.50;99.90
35970;DHT22;22448;51.298;6.430;2023-04-01T08:23:21;9.60;99.90
35970;DHT22;22448;51.298;6.430;2023-04-01T08:26:31;9.70;99.90
35970;DHT22;22448;51.298;6.430;2023-04-01T08:29:08;9.60;99.90
35970;DHT22;22448;51.298;6.430;2023-04-01T08:31:55;9.70;99.90
35970;DHT22;22448;51.298;6.430;2023-04-01T08:34:27;9.60;99.90
35970;DHT22;22448;51.298;6.430;2023-04-01T08:37:17;9.60;99.90
35970;DHT22;22448;51.298;6.430;2023-04-01T08:39:54;9.70;99.90
35970;DHT22;22448;51.298;6.430;2023-04-01T08:48:10;10.00;99.90
35970;DHT22;22448;51.298;6.430;2023-04-01T08:54:04;10.40;99.90
35970;DHT22;22448;51.298;6.430;2023-04-01T09:00:04;10.70;99.90
35970;DHT22;22448;51.298;6.430;2023-04-01T09:03:58;10.90;99.90
35970;DHT22;22448;51.298;6.430;2023-04-01T09:08:59;10.80;99.90
35970;DHT22;22448;51.298;6.430;2023-04-01T09:12:06;10.80;99.90
35970;DHT22;22448;51.298;6.430;2023-04-01T09:15:04;10.60;99.90
35970;DHT22;22448;51.298;6.430;2023-04-01T09:18:04;10.60;99.90
35970;DHT22;22448;51.298;6.430;2023-04-01T09:20:55;10.50;99.90
35970;DHT22;22448;51.298;6.430;2023-04-01T09:26:47;10.50;99.90
35970;DHT22;22448;51.298;6.430;2023-04-01T09:37:52;10.10;99.90
35970;DHT22;22448;51.298;6.430;2023-04-01T09:44:36;10.20;99.90
35970;DHT22;22448;51.298;6.430;2023-04-01T09:47:22;10.30;99.90
35970;DHT22;22448;51.298;6.430;2023-04-01T09:56:05;10.50;99.90
35970;DHT22;22448;51.298;6.430;2023-04-01T09:58:55;10.60;99.90
35970;DHT22;22448;51.298;6.430;2023-04-01T10:02:25;10.70;99.90
35970;DHT22;22448;51.298;6.430;2023-04-01T10:08:12;10.70;99.90
35970;DHT22;22448;51.298;6.430;2023-04-01T10:16:24;10.50;99.90
35970;DHT22;22448;51.298;6.430;2023-04-01T10:19:24;10.40;99.90
35970;DHT22;22448;51.298;6.430;2023-04-01T10:34:31;10.40;99.90
35970;DHT22;22448;51.298;6.430;2023-04-01T10:46:39;10.50;99.90
35970;DHT22;22448;51.298;6.430;2023-04-01T10:50:05;10.60;99.90
35970;DHT22;22448;51.298;6.430;2023-04-01T11:10:57;10.60;99.90
35970;DHT22;22448;51.298;6.430;2023-04-01T11:27:44;10.60;99.90
35970;DHT22;22448;51.298;6.430;2023-04-01T11:33:24;10.50;99.90
35970;DHT22;22448;51.298;6.430;2023-04-01T11:39:28;10.50;99.90
35970;DHT22;22448;51.298;6.430;2023-04-01T11:42:10;10.40;99.90
35970;DHT22;22448;51.298;6.430;2023-04-01T11:48:17;10.40;99.90
35970;DHT22;22448;51.298;6.430;2023-04-01T11:56:34;10.30;99.90
35970;DHT22;22448;51.298;6.430;2023-04-01T12:02:21;10.40;99.90
35970;DHT22;22448;51.298;6.430;2023-04-01T12:10:18;10.50;99.90
35970;DHT22;22448;51.298;6.430;2023-04-01T12:16:23;10.50;99.90
35970;DHT22;22448;51.298;6.430;2023-04-01T12:27:02;10.70;99.90
35970;DHT22;22448;51.298;6.430;2023-04-01T12:35:20;11.00;99.90
35970;DHT22;22448;51.298;6.430;2023-04-01T12:41:01;11.00;99.90
35970;DHT22;22448;51.298;6.430;2023-04-01T12:52:33;11.20;99.90
35970;DHT22;22448;51.298;6.430;2023-04-01T12:58:03;11.10;99.90
35970;DHT22;22448;51.298;6.430;2023-04-01T13:03:58;11.00;99.90
35970;DHT22;22448;51.298;6.430;2023-04-01T13:07:02;11.00;99.90
35970;DHT22;22448;51.298;6.430;2023-04-01T13:09:36;11.00;99.90
35970;DHT22;22448;51.298;6.430;2023-04-01T13:12:36;11.00;99.90
35970;DHT22;22448;51.298;6.430;2023-04-01T13:18:21;11.00;99.90
35970;DHT22;22448;51.298;6.430;2023-04-01T13:24:19;10.90;99.90
35970;DHT22;22448;51.298;6.430;2023-04-01T13:35:38;11.10;99.90
35970;DHT22;22448;51.298;6.430;2023-04-01T13:53:10;11.70;99.90
35970;DHT22;22448;51.298;6.430;2023-04-01T13:55:54;11.80;99.90
35970;DHT22;22448;51.298;6.430;2023-04-01T14:01:05;12.00;99.90
35970;DHT22;22448;51.298;6.430;2023-04-01T14:09:34;11.90;99.90
35970;DHT22;22448;51.298;6.430;2023-04-01T14:12:11;11.70;99.90
35970;DHT22;22448;51.298;6.430;2023-04-01T14:20:33;11.40;99.90
35970;DHT22;22448;51.298;6.430;2023-04-01T14:26:13;11.40;99.90
35970;DHT22;22448;51.298;6.430;2023-04-01T14:29:06;11.40;99.90
35970;DHT22;22448;51.298;6.430;2023-04-01T14:32:24;11.40;99.90
35970;DHT22;22448;51.298;6.430;2023-04-01T14:35:18;11.40;99.90
35970;DHT22;22448;51.298;6.430;2023-04-01T14:43:28;11.30;99.90
35970;DHT22;22448;51.298;6.430;2023-04-01T14:49:28;11.30;99.90
35970;DHT22;22448;51.298;6.430;2023-04-01T14:52:27;11.30;99.90
35970;DHT22;22448;51.298;6.430;2023-04-01T14:54:51;11.30;99.90
35970;DHT22;22448;51.298;6.430;2023-04-01T14:57:30;11.20;99.90
35970;DHT22;22448;51.298;6.430;2023-04-01T15:02:49;11.20;99.90
35970;DHT22;22448;51.298;6.430;2023-04-01T15:08:18;11.20;99.90
35970;DHT22;22448;51.298;6.430;2023-04-01T15:10:59;11.20;99.90
35970;DHT22;22448;51.298;6.430;2023-04-01T15:16:22;11.10;99.90
35970;DHT22;22448;51.298;6.430;2023-04-01T15:21:44;11.10;99.90
35970;DHT22;22448;51.298;6.430;2023-04-01T15:32:44;11.00;99.90
35970;DHT22;22448;51.298;6.430;2023-04-01T15:43:35;10.70;99.90
35970;DHT22;22448;51.298;6.430;2023-04-01T16:03:10;10.30;99.90
35970;DHT22;22448;51.298;6.430;2023-04-01T16:06:30;10.30;99.90
35970;DHT22;22448;51.298;6.430;2023-04-01T16:11:57;10.30;99.90
35970;DHT22;22448;51.298;6.430;2023-04-01T16:17:11;10.20;99.90
35970;DHT22;22448;51.298;6.430;2023-04-01T16:19:51;10.20;99.90
35970;DHT22;22448;51.298;6.430;2023-04-01T16:22:31;10.20;99.90
35970;DHT22;22448;51.298;6.430;2023-04-01T16:25:26;10.20;99.90
35970;DHT22;22448;51.298;6.430;2023-04-01T16:28:22;10.20;99.90
35970;DHT22;22448;51.298;6.430;2023-04-01T16:30:58;10.20;99.90
35970;DHT22;22448;51.298;6.430;2023-04-01T16:36:13;10.20;99.90
35970;DHT22;22448;51.298;6.430;2023-04-01T16:39:08;10.20;99.90
35970;DHT22;22448;51.298;6.430;2023-04-01T16:41:52;10.20;99.90
35970;DHT22;22448;51.298;6.430;2023-04-01T16:44:26;10.20;99.90
35970;DHT22;22448;51.298;6.430;2023-04-01T16:47:08;10.20;99.90
35970;DHT22;22448;51.298;6.430;2023-04-01T16:49:44;10.10;99.90
35970;DHT22;22448;51.298;6.430;2023-04-01T16:52:16;10.20;99.90
35970;DHT22;22448;51.298;6.430;2023-04-01T16:54:53;10.10;99.90
35970;DHT22;22448;51.298;6.430;2023-04-01T16:57:36;10.10;99.90
35970;DHT22;22448;51.298;6.430;2023-04-01T17:00:31;10.10;99.90
35970;DHT22;22448;51.298;6.430;2023-04-01T17:03:32;10.10;99.90
35970;DHT22;22448;51.298;6.430;2023-04-01T17:06:16;10.00;99.90
35970;DHT22;22448;51.298;6.430;2023-04-01T17:09:11;10.10;99.90
35970;DHT22;22448;51.298;6.430;2023-04-01T17:11:54;10.00;99.90
35970;DHT22;22448;51.298;6.430;2023-04-01T17:14:37;10.00;99.90
35970;DHT22;22448;51.298;6.430;2023-04-01T17:22:54;9.90;99.90
35970;DHT22;22448;51.298;6.430;2023-04-01T17:28:17;9.80;99.90
35970;DHT22;22448;51.298;6.430;2023-04-01T17:33:37;9.80;99.90
35970;DHT22;22448;51.298;6.430;2023-04-01T17:41:59;9.70;99.90
35970;DHT22;22448;51.298;6.430;2023-04-01T17:44:49;9.70;99.90
35970;DHT22;22448;51.298;6.430;2023-04-01T17:50:22;9.70;99.90
35970;DHT22;22448;51.298;6.430;2023-04-01T18:03:48;9.60;99.90
35970;DHT22;22448;51.298;6.430;2023-04-01T18:06:34;9.60;99.90
35970;DHT22;22448;51.298;6.430;2023-04-01T18:10:06;9.60;99.90
35970;DHT22;22448;51.298;6.430;2023-04-01T18:12:25;9.60;99.90
35970;DHT22;22448;51.298;6.430;2023-04-01T18:15:11;9.60;99.90
35970;DHT22;22448;51.298;6.430;2023-04-01T18:18:04;9.50;99.90
35970;DHT22;22448;51.298;6.430;2023-04-01T18:20:41;9.50;99.90
35970;DHT22;22448;51.298;6.430;2023-04-01T18:23:43;9.50;99.90
35970;DHT22;22448;51.298;6.430;2023-04-01T18:26:31;9.40;99.90
35970;DHT22;22448;51.298;6.430;2023-04-01T18:32:00;9.40;99.90
35970;DHT22;22448;51.298;6.430;2023-04-01T18:34:49;9.40;99.90
35970;DHT22;22448;51.298;6.430;2023-04-01T18:45:54;9.30;99.90
35970;DHT22;22448;51.298;6.430;2023-04-01T18:51:38;9.30;99.90
35970;DHT22;22448;51.298;6.430;2023-04-01T18:56:48;9.20;99.90
35970;DHT22;22448;51.298;6.430;2023-04-01T18:59:41;9.30;99.90
35970;DHT22;22448;51.298;6.430;2023-04-01T19:07:55;9.20;99.90
35970;DHT22;22448;51.298;6.430;2023-04-01T19:13:42;9.20;99.90
35970;DHT22;22448;51.298;6.430;2023-04-01T19:19:38;9.20;99.90
35970;DHT22;22448;51.298;6.430;2023-04-01T19:22:27;9.20;99.90
35970;DHT22;22448;51.298;6.430;2023-04-01T19:30:58;9.20;99.90
35970;DHT22;22448;51.298;6.430;2023-04-01T19:36:29;9.20;99.90
35970;DHT22;22448;51.298;6.430;2023-04-01T19:41:55;9.20;99.90
35970;DHT22;22448;51.298;6.430;2023-04-01T19:45:33;9.20;99.90
35970;DHT22;22448;51.298;6.430;2023-04-01T19:52:55;9.20;99.90
35970;DHT22;22448;51.298;6.430;2023-04-01T19:55:43;9.30;99.90
35970;DHT22;22448;51.298;6.430;2023-04-01T20:01:04;9.40;99.90
35970;DHT22;22448;51.298;6.430;2023-04-01T20:03:41;9.40;99.90
35970;DHT22;22448;51.298;6.430;2023-04-01T20:06:23;9.40;99.90
35970;DHT22;22448;51.298;6.430;2023-04-01T20:09:04;9.40;99.90
35970;DHT22;22448;51.298;6.430;2023-04-01T20:11:47;9.40;99.90
35970;DHT22;22448;51.298;6.430;2023-04-01T20:14:40;9.40;99.90
35970;DHT22;22448;51.298;6.430;2023-04-01T20:25:30;9.30;99.90
35970;DHT22;22448;51.298;6.430;2023-04-01T20:28:25;9.30;99.90
35970;DHT22;22448;51.298;6.430;2023-04-01T20:31:02;9.20;99.90
35970;DHT22;22448;51.298;6.430;2023-04-01T20:36:34;9.20;99.90
35970;DHT22;22448;51.298;6.430;2023-04-01T20:39:27;9.10;99.90
35970;DHT22;22448;51.298;6.430;2023-04-01T20:50:41;9.00;99.90
35970;DHT22;22448;51.298;6.430;2023-04-01T20:53:28;9.00;99.90
35970;DHT22;22448;51.298;6.430;2023-04-01T20:56:11;9.00;99.90
35970;DHT22;22448;51.298;6.430;2023-04-01T21:01:44;9.00;99.90
35970;DHT22;22448;51.298;6.430;2023-04-01T21:07:37;8.90;99.90
35970;DHT22;22448;51.298;6.430;2023-04-01T21:13:30;8.90;99.90
35970;DHT22;22448;51.298;6.430;2023-04-01T21:24:37;8.80;99.90
35970;DHT22;22448;51.298;6.430;2023-04-01T21:38:33;8.60;99.90
35970;DHT22;22448;51.298;6.430;2023-04-01T21:47:18;8.60;99.90
35970;DHT22;22448;51.298;6.430;2023-04-01T21:50:15;8.60;99.90
35970;DHT22;22448;51.298;6.430;2023-04-01T22:01:54;8.40;99.90
35970;DHT22;22448;51.298;6.430;2023-04-01T22:04:55;8.30;99.90
35970;DHT22;22448;51.298;6.430;2023-04-01T22:07:36;8.20;99.90
35970;DHT22;22448;51.298;6.430;2023-04-01T22:13:15;8.10;99.90
35970;DHT22;22448;51.298;6.430;2023-04-01T22:15:52;8.10;99.90
35970;DHT22;22448;51.298;6.430;2023-04-01T22:18:33;8.10;99.90
35970;DHT22;22448;51.298;6.430;2023-04-01T22:21:10;8.00;99.90
35970;DHT22;22448;51.298;6.430;2023-04-01T22:26:37;7.90;99.90
35970;DHT22;22448;51.298;6.430;2023-04-01T22:29:11;7.90;99.90
35970;DHT22;22448;51.298;6.430;2023-04-01T22:31:49;7.80;99.90
35970;DHT22;22448;51.298;6.430;2023-04-01T22:34:39;7.80;99.90
35970;DHT22;22448;51.298;6.430;2023-04-01T22:42:47;7.80;99.90
35970;DHT22;22448;51.298;6.430;2023-04-01T22:45:55;7.70;99.90
35970;DHT22;22448;51.298;6.430;2023-04-01T22:48:38;7.70;99.90
35970;DHT22;22448;51.298;6.430;2023-04-01T22:51:15;7.70;99.90
35970;DHT22;22448;51.298;6.430;2023-04-01T23:02:41;7.60;99.90
35970;DHT22;22448;51.298;6.430;2023-04-01T23:05:13;7.60;99.90
35970;DHT22;22448;51.298;6.430;2023-04-01T23:07:56;7.60;99.90
35970;DHT22;22448;51.298;6.430;2023-04-01T23:10:51;7.50;99.90
35970;DHT22;22448;51.298;6.430;2023-04-01T23:13:24;7.50;99.90
35970;DHT22;22448;51.298;6.430;2023-04-01T23:15:54;7.50;99.90
35970;DHT22;22448;51.298;6.430;2023-04-01T23:18:37;7.40;99.90
35970;DHT22;22448;51.298;6.430;2023-04-01T23:21:18;7.40;99.90
35970;DHT22;22448;51.298;6.430;2023-04-01T23:29:04;7.30;99.90
35970;DHT22;22448;51.298;6.430;2023-04-01T23:31:42;7.30;99.90
35970;DHT22;22448;51.298;6.430;2023-04-01T23:36:47;7.10;99.90
35970;DHT22;22448;51.298;6.430;2023-04-01T23:39:38;7.00;99.90
35970;DHT22;22448;51.298;6.430;2023-04-01T23:44:42;6.90;99.90
35970;DHT22;22448;51.298;6.430;2023-04-01T23:47:15;6.90;99.90
35970;DHT22;22448;51.298;6.430;2023-04-01T23:49:56;6.90;99.90
35970;DHT22;22448;51.298;6.430;2023-04-01T23:52:34;6.80;99.90
35970;DHT22;22448;51.298;6.430;2023-04-01T23:57:37;6.80;99.90
